CYFS

Fort Simpson Airport

Fort Simpson, Northwest Territories, Canada
METAR CYFS 172300Z 32007KT 300V030 15SM SCT053 SCT080 SCT097 23/09 A2984 RMK CU3AC1AC1 AC TR CB TOP DIST W SLP111 DENSITY ALT 1700FT
Observed Flight Rules
Jul-17 @ 23:00 UTC (19 minutes ago) Visual Flight Rules
Wind Visibility Clouds
320° at 7 knots 15 miles
  • Scattered at 5,300' AGL
  • Scattered at 8,000' AGL
  • Scattered at 9,700' AGL
Temperatures Readings
Current 23°C / 73°F
Dewpoint 9°C / 48°F
Humidity 41%
Altimeter 29.84" Hg
Pressure 1011.1 hPa
Elevation 169
METAR CYFS 172300Z 32007KT 300V030 15SM SCT053 SCT080 SCT097 23/09 A2984 RMK CU3AC1AC1 AC TR CB TOP DIST W SLP111 DENSITY ALT 1700FT
Observed Flight Rules
Jul-17 @ 23:00 UTC
(19 minutes ago)
VFR
Wind Visibility
320° at 7 knots 15 miles
Clouds
  • Scattered at 5,300' AGL
  • Scattered at 8,000' AGL
  • Scattered at 9,700' AGL
Temperature Dewpoint
23°C / 73°F 9°C / 48°F
Humidity Altimeter Pressure
41% 29.84" Hg 1011.1 hPa